Apus — XUCT7 — position and weather

sailwx.info

Track history (hours):
 
Tides and Currents Weather Stations Pressure Air Temp Water Temp Dewpoint Dewpoint Depression Visibility Wind Speed Wind Dir Waves Ship Positions

Apus

Last reported at 2015-Jul-30 13:28 UTC. Time now 2015-Jul-30 14:13 UTC.
Position N 31°21' E 032°20'.

Length 93 m; draft 6.1 m.

Type: Tanker. MMSI: 515102000.

Date/timePositionNaut miles runAvg speedWind from/ knotsBaromVisibWave heightAir tempDewpointWater temp
2015-Jul-30 13:28N 31°21' E 032°20'0 0.0
2015-Jul-30 12:13N 31°21' E 032°20'0 0.0
2015-Jul-30 11:31N 31°21' E 032°20'0 0.0
2015-Jul-30 09:28N 31°21' E 032°20'0 0.0
2015-Jul-30 08:25N 31°21' E 032°20'0 0.0
2015-Jul-30 07:31N 31°21' E 032°20'0 0.0
2015-Jul-30 02:13N 31°21' E 032°20'0 0.0
2015-Jul-30 01:31N 31°21' E 032°20'0 0.0
2015-Jul-30 00:28N 31°21' E 032°20'0 0.0
2015-Jul-29 22:25N 31°21' E 032°20'0 0.0
2015-Jul-29 21:28N 31°21' E 032°20'0 0.0
2015-Jul-29 19:04N 31°21' E 032°20'0 0.0
2015-Jul-29 18:31N 31°21' E 032°20'0 0.0
2015-Jul-29 17:31N 31°21' E 032°20'0 0.0
2015-Jul-29 16:31N 31°21' E 032°20'0 0.0
2015-Jul-29 14:31N 31°21' E 032°20'29 9.7
2015-Jul-29 11:28N 31°44' E 031°58'17513.4
2015-Jul-28 22:24N 33°53' E 029°39'7213.8
2015-Jul-28 17:10N 34°48' E 028°41'913.6
2015-Jul-28 16:30N 34°55' E 028°34'6813.8
2015-Jul-28 11:33N 35°46' E 027°39'1414.1
2015-Jul-28 10:33N 35°56' E 027°27'4113.5
2015-Jul-28 07:33N 36°25' E 026°52'2713.4
2015-Jul-28 05:33N 36°44' E 026°29'1413.5
2015-Jul-28 04:33N 36°54' E 026°18'1313.2
2015-Jul-28 03:33N 37°05' E 026°09'1313.4
2015-Jul-28 02:33N 37°17' E 026°01'1313.3
2015-Jul-28 01:33N 37°29' E 025°54'1313.3
2015-Jul-28 00:33N 37°42' E 025°52'  
2015-Jul-24 06:28N 41°00' E 028°60'8 8.6
2015-Jul-24 05:33N 40°53' E 028°55'5 5.3
2015-Jul-24 04:33N 40°51' E 028°49'241 9.3
2015-Jul-23 02:33N 37°31' E 025°55'1211.7
2015-Jul-23 01:33N 37°23' E 026°06'1312.9
2015-Jul-23 00:33N 37°14' E 026°17'1212.5
2015-Jul-22 23:33N 37°05' E 026°28'1312.3
2015-Jul-22 22:32N 36°55' E 026°37'1212.1
2015-Jul-22 21:32N 36°44' E 026°43'2412.1
2015-Jul-22 19:33N 36°22' E 026°58'3712.2
2015-Jul-22 16:31N 35°58' E 027°32'1111.6
2015-Jul-22 15:33N 35°50' E 027°42'2411.6
2015-Jul-22 13:30N 35°32' E 028°01'11412.6
2015-Jul-22 04:28N 34°05' E 029°30'1212.8
2015-Jul-22 03:34N 33°56' E 029°39'1312.9
2015-Jul-22 02:33N 33°46' E 029°49'1312.8
2015-Jul-22 01:34N 33°36' E 029°59'1313.0
2015-Jul-22 00:33N 33°26' E 030°10'1513.0
2015-Jul-21 23:22N 33°15' E 030°22'1112.9
2015-Jul-21 22:32N 33°07' E 030°30'1313.1
2015-Jul-21 21:33N 32°57' E 030°40'1313.3
2015-Jul-21 20:33N 32°47' E 030°50'1813.0
2015-Jul-21 19:12N 32°33' E 031°04'812.8
2015-Jul-21 18:33N 32°27' E 031°10'1312.7
2015-Jul-21 17:34N 32°18' E 031°20'1312.8
2015-Jul-21 16:33N 32°08' E 031°30'1512.8
2015-Jul-21 15:21N 31°56' E 031°42'1512.4
2015-Jul-21 14:07N 31°47' E 031°56'712.9
2015-Jul-21 13:33N 31°42' E 032°03'1313.1
2015-Jul-21 12:33N 31°33' E 032°14'21 9.5
2015-Jul-21 10:22N 31°13' E 032°21'  
Track history (hours):
 
Tides and Currents Weather Stations Pressure Air Temp Water Temp Dewpoint Dewpoint Depression Visibility Wind Speed Wind Dir Waves Ship Positions

Apus

Last reported at 2015-Jul-30 13:28 UTC. Time now 2015-Jul-30 14:13 UTC.
Position N 31°21' E 032°20'.

Length 93 m; draft 6.1 m.

Type: Tanker. MMSI: 515102000.

Date/timePositionNaut miles runAvg speedWind from/ knotsBaromVisibWave heightAir tempDewpointWater temp
2015-Jul-30 13:28N 31°21' E 032°20'0 0.0
2015-Jul-30 12:13N 31°21' E 032°20'0 0.0
2015-Jul-30 11:31N 31°21' E 032°20'0 0.0
2015-Jul-30 09:28N 31°21' E 032°20'0 0.0
2015-Jul-30 08:25N 31°21' E 032°20'0 0.0
2015-Jul-30 07:31N 31°21' E 032°20'0 0.0
2015-Jul-30 02:13N 31°21' E 032°20'0 0.0
2015-Jul-30 01:31N 31°21' E 032°20'0 0.0
2015-Jul-30 00:28N 31°21' E 032°20'0 0.0
2015-Jul-29 22:25N 31°21' E 032°20'0 0.0
2015-Jul-29 21:28N 31°21' E 032°20'0 0.0
2015-Jul-29 19:04N 31°21' E 032°20'0 0.0
2015-Jul-29 18:31N 31°21' E 032°20'0 0.0
2015-Jul-29 17:31N 31°21' E 032°20'0 0.0
2015-Jul-29 16:31N 31°21' E 032°20'0 0.0
2015-Jul-29 14:31N 31°21' E 032°20'29 9.7
2015-Jul-29 11:28N 31°44' E 031°58'17513.4
2015-Jul-28 22:24N 33°53' E 029°39'7213.8
2015-Jul-28 17:10N 34°48' E 028°41'913.6
2015-Jul-28 16:30N 34°55' E 028°34'6813.8
2015-Jul-28 11:33N 35°46' E 027°39'1414.1
2015-Jul-28 10:33N 35°56' E 027°27'4113.5
2015-Jul-28 07:33N 36°25' E 026°52'2713.4
2015-Jul-28 05:33N 36°44' E 026°29'1413.5
2015-Jul-28 04:33N 36°54' E 026°18'1313.2
2015-Jul-28 03:33N 37°05' E 026°09'1313.4
2015-Jul-28 02:33N 37°17' E 026°01'1313.3
2015-Jul-28 01:33N 37°29' E 025°54'1313.3
2015-Jul-28 00:33N 37°42' E 025°52'  
2015-Jul-24 06:28N 41°00' E 028°60'8 8.6
2015-Jul-24 05:33N 40°53' E 028°55'5 5.3
2015-Jul-24 04:33N 40°51' E 028°49'241 9.3
2015-Jul-23 02:33N 37°31' E 025°55'1211.7
2015-Jul-23 01:33N 37°23' E 026°06'1312.9
2015-Jul-23 00:33N 37°14' E 026°17'1212.5
2015-Jul-22 23:33N 37°05' E 026°28'1312.3
2015-Jul-22 22:32N 36°55' E 026°37'1212.1
2015-Jul-22 21:32N 36°44' E 026°43'2412.1
2015-Jul-22 19:33N 36°22' E 026°58'3712.2
2015-Jul-22 16:31N 35°58' E 027°32'1111.6
2015-Jul-22 15:33N 35°50' E 027°42'2411.6
2015-Jul-22 13:30N 35°32' E 028°01'11412.6
2015-Jul-22 04:28N 34°05' E 029°30'1212.8
2015-Jul-22 03:34N 33°56' E 029°39'1312.9
2015-Jul-22 02:33N 33°46' E 029°49'1312.8
2015-Jul-22 01:34N 33°36' E 029°59'1313.0
2015-Jul-22 00:33N 33°26' E 030°10'1513.0
2015-Jul-21 23:22N 33°15' E 030°22'1112.9
2015-Jul-21 22:32N 33°07' E 030°30'1313.1
2015-Jul-21 21:33N 32°57' E 030°40'1313.3
2015-Jul-21 20:33N 32°47' E 030°50'1813.0
2015-Jul-21 19:12N 32°33' E 031°04'812.8
2015-Jul-21 18:33N 32°27' E 031°10'1312.7
2015-Jul-21 17:34N 32°18' E 031°20'1312.8
2015-Jul-21 16:33N 32°08' E 031°30'1512.8
2015-Jul-21 15:21N 31°56' E 031°42'1512.4
2015-Jul-21 14:07N 31°47' E 031°56'712.9
2015-Jul-21 13:33N 31°42' E 032°03'1313.1
2015-Jul-21 12:33N 31°33' E 032°14'21 9.5
2015-Jul-21 10:22N 31°13' E 032°21'  

Dump ship's entire track history